Time;durP1;ratioP1;P1;durP2;ratioP2;P2;SDS_P1;SDS_P2;PMS_P1;PMS_P2;Temp;Humidity;BMP_temperature;BMP_pressure;BME280_temperature;BME280_humidity;BME280_pressure;Samples;Min_cycle;Max_cycle;Signal;HPM_P1;HPM_P2
2022/12/10 00:01:22;;;;;;;71.05;28.70;;;-1.70;99.90;;;;;;4996747;28;20062;-87
2022/12/10 00:03:48;;;;;;;83.45;29.90;;;-1.80;99.90;;;;;;4975199;28;20050;-86
2022/12/10 00:06:17;;;;;;;75.22;28.85;;;-1.80;99.90;;;;;;4966803;28;20128;-87
2022/12/10 00:08:44;;;;;;;74.93;28.00;;;-1.80;99.90;;;;;;4976704;28;20482;-87
2022/12/10 00:11:12;;;;;;;77.47;28.70;;;-1.80;99.90;;;;;;4979728;28;20498;-86
2022/12/10 00:13:42;;;;;;;79.50;28.25;;;-1.70;99.90;;;;;;4980031;28;20535;-88
2022/12/10 00:16:10;;;;;;;80.13;27.80;;;-1.80;99.90;;;;;;4977012;28;20038;-87
2022/12/10 00:18:37;;;;;;;77.68;26.60;;;-1.80;99.90;;;;;;4972753;28;20048;-87
2022/12/10 00:21:15;;;;;;;85.68;27.95;;;-1.80;99.90;;;;;;4975528;28;20458;-87
2022/12/10 00:23:41;;;;;;;82.57;29.45;;;-1.70;99.90;;;;;;4962369;28;20050;-87
2022/12/10 00:26:13;;;;;;;77.28;27.85;;;-1.80;99.90;;;;;;4978161;28;20084;-87
2022/12/10 00:28:40;;;;;;;85.00;28.02;;;-1.80;99.90;;;;;;4980566;28;20277;-87
2022/12/10 00:31:17;;;;;;;85.47;28.92;;;-1.70;99.90;;;;;;4993597;28;20137;-88
2022/12/10 00:33:44;;;;;;;86.28;28.65;;;-1.80;99.90;;;;;;4977977;28;20047;-87
2022/12/10 00:36:19;;;;;;;80.22;28.92;;;-1.70;99.90;;;;;;4978029;28;20214;-87
2022/12/10 00:38:45;;;;;;;83.07;28.92;;;-1.80;99.90;;;;;;4976420;28;20286;-87
2022/12/10 00:41:12;;;;;;;96.40;30.05;;;-1.80;99.90;;;;;;4994852;28;20100;-87
2022/12/10 00:43:38;;;;;;;83.82;29.25;;;-1.70;99.90;;;;;;4960120;28;20044;-87
2022/12/10 00:46:04;;;;;;;92.82;31.58;;;-1.70;99.90;;;;;;4993802;28;20614;-87
2022/12/10 00:48:31;;;;;;;82.78;29.65;;;-1.60;99.90;;;;;;4989147;28;20505;-87
2022/12/10 00:51:05;;;;;;;87.20;29.85;;;-1.60;99.90;;;;;;4978807;28;20041;-88
2022/12/10 00:53:35;;;;;;;81.10;29.33;;;-1.50;99.90;;;;;;4959988;28;20169;-88
2022/12/10 00:56:05;;;;;;;85.10;29.10;;;-1.60;99.90;;;;;;4976051;28;20144;-87
2022/12/10 00:58:33;;;;;;;87.18;29.42;;;-1.70;99.90;;;;;;4958880;28;20091;-88
2022/12/10 01:01:08;;;;;;;88.05;29.63;;;-1.70;99.90;;;;;;4976808;28;20293;-87
2022/12/10 01:03:34;;;;;;;83.28;29.42;;;-1.70;99.90;;;;;;4992842;28;20152;-88
2022/12/10 01:06:12;;;;;;;90.95;30.45;;;-1.60;99.90;;;;;;4975083;28;20033;-88
2022/12/10 01:08:38;;;;;;;94.30;31.77;;;-1.80;99.90;;;;;;4991810;28;20183;-87
2022/12/10 01:11:05;;;;;;;85.95;28.95;;;-1.70;99.90;;;;;;4979897;28;20038;-87
2022/12/10 01:13:30;;;;;;;83.57;29.27;;;-1.80;99.90;;;;;;4978787;28;20522;-88
2022/12/10 01:15:56;;;;;;;90.55;30.38;;;-1.80;99.90;;;;;;4991610;28;20504;-87
2022/12/10 01:18:24;;;;;;;87.65;29.08;;;-1.90;99.90;;;;;;4972530;28;20073;-87
2022/12/10 01:20:50;;;;;;;82.68;29.13;;;-1.90;99.90;;;;;;4975076;28;20504;-88
2022/12/10 01:23:16;;;;;;;84.07;31.55;;;-1.90;99.90;;;;;;4972021;28;20137;-87
2022/12/10 01:25:42;;;;;;;87.78;29.02;;;-1.80;99.90;;;;;;4977104;28;20360;-88
2022/12/10 01:28:07;;;;;;;90.03;28.85;;;-1.90;99.90;;;;;;4974009;28;20125;-87
2022/12/10 01:30:33;;;;;;;86.43;29.17;;;-2.00;99.90;;;;;;4975816;28;20273;-87
2022/12/10 01:32:59;;;;;;;91.30;30.33;;;-2.00;99.90;;;;;;4975049;28;20431;-87
2022/12/10 01:35:24;;;;;;;86.28;29.00;;;-2.00;99.90;;;;;;4996337;28;20041;-87
2022/12/10 01:37:50;;;;;;;85.75;29.75;;;-1.80;99.90;;;;;;4973919;28;20182;-88
2022/12/10 01:40:16;;;;;;;87.68;29.35;;;-1.90;99.90;;;;;;4976107;28;20140;-88
2022/12/10 01:42:42;;;;;;;94.47;29.63;;;-1.80;99.90;;;;;;4973591;28;20053;-87
2022/12/10 01:45:12;;;;;;;93.05;30.90;;;-1.80;99.90;;;;;;4974320;28;20053;-87
2022/12/10 01:47:38;;;;;;;95.55;32.13;;;-1.80;99.90;;;;;;4961549;28;20148;-87
2022/12/10 01:50:06;;;;;;;86.93;30.55;;;-1.80;99.90;;;;;;4974090;28;20520;-87
2022/12/10 01:52:37;;;;;;;92.43;31.55;;;-1.80;99.90;;;;;;4973345;28;20038;-86
2022/12/10 01:55:08;;;;;;;90.55;31.15;;;-1.70;99.90;;;;;;4973943;28;20048;-87
2022/12/10 01:57:34;;;;;;;100.25;32.53;;;-1.80;99.90;;;;;;4989416;28;20860;-87
2022/12/10 02:00:04;;;;;;;98.20;31.38;;;-1.90;99.90;;;;;;4977459;28;20505;-85
2022/12/10 02:02:54;;;;;;;94.30;32.35;;;-1.70;99.90;;;;;;4972563;28;20050;-87
2022/12/10 02:05:40;;;;;;;92.32;31.63;;;-1.80;99.90;;;;;;4991967;28;20085;-87
2022/12/10 02:08:23;;;;;;;94.78;33.08;;;-1.60;99.90;;;;;;4957774;28;20142;-87
2022/12/10 02:11:11;;;;;;;92.78;32.47;;;-1.70;99.90;;;;;;4973686;28;20039;-88
2022/12/10 02:13:55;;;;;;;96.30;33.03;;;-1.70;99.90;;;;;;4973703;28;20053;-86
2022/12/10 02:16:36;;;;;;;99.90;32.90;;;-1.70;99.90;;;;;;4989980;28;20054;-86
2022/12/10 02:19:20;;;;;;;95.40;32.70;;;-1.80;99.90;;;;;;4990138;28;20041;-88
2022/12/10 02:21:47;;;;;;;100.07;31.77;;;-1.70;99.90;;;;;;4972882;28;20054;-87
2022/12/10 02:24:22;;;;;;;107.28;33.30;;;-1.80;99.90;;;;;;4985130;28;20290;-87
2022/12/10 02:27:06;;;;;;;107.18;33.55;;;-1.90;99.90;;;;;;4975737;28;20046;-87
2022/12/10 02:29:33;;;;;;;98.37;31.73;;;-1.90;99.90;;;;;;4973601;28;20042;-87
2022/12/10 02:32:02;;;;;;;102.10;32.53;;;-1.90;99.90;;;;;;4991662;28;20157;-87
2022/12/10 02:34:33;;;;;;;96.60;32.25;;;-2.00;99.90;;;;;;4986330;28;20049;-87
2022/12/10 02:37:05;;;;;;;95.68;32.05;;;-2.00;99.90;;;;;;4974457;28;20400;-87
2022/12/10 02:39:39;;;;;;;100.10;31.98;;;-2.00;99.90;;;;;;4975214;28;20078;-87
2022/12/10 02:42:10;;;;;;;104.33;32.17;;;-2.00;99.90;;;;;;4976154;28;20037;-87
2022/12/10 02:44:38;;;;;;;97.10;32.15;;;-2.10;99.90;;;;;;4993383;28;20354;-87
2022/12/10 02:47:06;;;;;;;94.65;32.00;;;-2.10;99.90;;;;;;4975221;28;20247;-87
2022/12/10 02:49:33;;;;;;;101.22;35.40;;;-2.10;99.90;;;;;;4990114;28;20454;-86
2022/12/10 02:52:05;;;;;;;98.97;34.03;;;-2.10;99.90;;;;;;4978282;28;20323;-87
2022/12/10 02:54:39;;;;;;;104.63;34.08;;;-2.10;99.90;;;;;;4993671;28;20502;-87
2022/12/10 02:57:54;;;;;;;95.10;32.83;;;-2.10;99.90;;;;;;4995917;28;20049;-87
2022/12/10 03:00:22;;;;;;;100.50;33.00;;;-2.10;99.90;;;;;;4974517;28;20077;-86
2022/12/10 03:02:48;;;;;;;90.15;32.83;;;-2.10;99.90;;;;;;4991030;28;20471;-87
2022/12/10 03:05:14;;;;;;;100.13;32.30;;;-2.00;99.90;;;;;;4974364;28;20054;-87
2022/12/10 03:07:56;;;;;;;99.82;34.17;;;-2.00;99.90;;;;;;4978270;28;20595;-87
2022/12/10 03:10:39;;;;;;;102.57;34.35;;;-2.00;99.90;;;;;;4978310;28;20038;-87
2022/12/10 03:13:12;;;;;;;102.13;33.75;;;-2.00;99.90;;;;;;4976205;28;20042;-87
2022/12/10 03:15:41;;;;;;;104.70;34.80;;;-2.00;99.90;;;;;;4990382;28;20039;-87
2022/12/10 03:18:08;;;;;;;105.82;34.65;;;-2.00;99.90;;;;;;4977064;28;20091;-87
2022/12/10 03:20:38;;;;;;;109.30;34.38;;;-2.10;99.90;;;;;;4978787;28;20150;-86
2022/12/10 03:23:08;;;;;;;99.75;34.30;;;-2.10;99.90;;;;;;4961726;28;20591;-87
2022/12/10 03:25:35;;;;;;;108.68;35.38;;;-2.00;99.90;;;;;;4963533;28;20042;-87
2022/12/10 03:28:01;;;;;;;99.22;33.35;;;-2.00;99.90;;;;;;4975552;28;20041;-87
2022/12/10 03:30:33;;;;;;;103.28;35.00;;;-2.00;99.90;;;;;;4975146;28;20777;-87
2022/12/10 03:32:59;;;;;;;105.85;35.42;;;-2.00;99.90;;;;;;4978323;28;20068;-87
2022/12/10 03:35:26;;;;;;;106.63;35.83;;;-2.10;99.90;;;;;;4979165;28;20544;-87
2022/12/10 03:37:52;;;;;;;105.00;34.13;;;-2.10;99.90;;;;;;4976482;28;20037;-87
2022/12/10 03:40:22;;;;;;;112.20;35.50;;;-2.10;99.90;;;;;;4978258;28;20439;-87
2022/12/10 03:42:48;;;;;;;110.15;35.47;;;-2.00;99.90;;;;;;4976697;28;20046;-87
2022/12/10 03:45:14;;;;;;;110.90;33.65;;;-2.20;99.90;;;;;;4973665;28;20050;-87
2022/12/10 03:47:41;;;;;;;105.35;34.88;;;-2.10;99.90;;;;;;4977051;28;20050;-87
2022/12/10 03:50:07;;;;;;;122.88;35.92;;;-2.10;99.90;;;;;;4977043;28;20053;-86
2022/12/10 03:52:33;;;;;;;122.00;35.42;;;-2.00;99.90;;;;;;4975711;28;20416;-87
2022/12/10 03:54:59;;;;;;;115.22;35.72;;;-2.00;99.90;;;;;;4975307;28;20442;-87
2022/12/10 03:57:25;;;;;;;115.57;34.75;;;-2.10;99.90;;;;;;4975644;28;20042;-87
2022/12/10 03:59:50;;;;;;;108.22;34.72;;;-2.10;99.90;;;;;;4975442;28;20264;-86
2022/12/10 04:02:16;;;;;;;104.45;31.05;;;-2.20;99.90;;;;;;4975096;28;20096;-85
2022/12/10 04:04:42;;;;;;;108.38;33.70;;;-2.10;99.90;;;;;;4961881;28;20056;-87
2022/12/10 04:07:08;;;;;;;117.88;35.28;;;-2.20;99.90;;;;;;4977710;28;20049;-87
2022/12/10 04:09:34;;;;;;;110.00;34.20;;;-2.10;99.90;;;;;;4964309;28;20210;-87
2022/12/10 04:12:00;;;;;;;116.97;34.55;;;-2.10;99.90;;;;;;4993994;28;20045;-87
2022/12/10 04:17:14;;;;;;;119.68;35.22;;;-2.20;99.90;;;;;;4991824;28;20056;-87
2022/12/10 04:19:40;;;;;;;109.93;33.85;;;-2.20;99.90;;;;;;4974855;28;20287;-87
2022/12/10 04:27:37;;;;;;;113.60;33.80;;;-2.30;99.90;;;;;;4995518;28;20149;-87
2022/12/10 04:30:07;;;;;;;113.65;35.85;;;-2.30;99.90;;;;;;4978197;28;20451;-87
2022/12/10 04:32:32;;;;;;;104.90;33.80;;;-2.30;99.90;;;;;;4976129;28;20120;-87
2022/12/10 04:34:59;;;;;;;109.93;34.10;;;-2.40;99.90;;;;;;4964766;28;20149;-87
2022/12/10 04:37:28;;;;;;;97.20;31.10;;;-2.60;99.90;;;;;;4992346;28;20454;-87
2022/12/10 04:39:54;;;;;;;114.78;33.45;;;-2.60;99.90;;;;;;4992784;28;20041;-87
2022/12/10 04:42:21;;;;;;;105.70;32.17;;;-2.60;99.90;;;;;;4979429;28;20046;-86
2022/12/10 04:44:46;;;;;;;109.20;33.30;;;-2.60;99.90;;;;;;4977863;28;20212;-87
2022/12/10 04:47:12;;;;;;;108.88;34.58;;;-2.50;99.90;;;;;;4975332;28;20208;-87
2022/12/10 04:49:42;;;;;;;106.43;32.97;;;-2.60;99.90;;;;;;4965043;28;20045;-86
2022/12/10 04:52:11;;;;;;;106.07;33.50;;;-2.60;99.90;;;;;;4958945;28;20042;-87
2022/12/10 04:54:39;;;;;;;105.70;33.15;;;-2.70;99.90;;;;;;4958141;28;20069;-87
2022/12/10 04:57:06;;;;;;;111.75;35.13;;;-2.70;99.90;;;;;;4961211;28;20115;-86
2022/12/10 04:59:32;;;;;;;106.25;32.00;;;-2.80;99.90;;;;;;4972383;28;20116;-86
2022/12/10 05:01:57;;;;;;;113.03;35.42;;;-2.70;99.90;;;;;;4975659;28;20054;-86
2022/12/10 05:04:23;;;;;;;104.68;34.25;;;-2.70;99.90;;;;;;4972650;28;20542;-86
2022/12/10 05:06:49;;;;;;;110.75;36.65;;;-2.70;99.90;;;;;;4976705;28;20178;-87
2022/12/10 05:09:15;;;;;;;107.78;34.08;;;-2.60;99.90;;;;;;4976476;28;20046;-87
2022/12/10 05:11:42;;;;;;;110.15;34.40;;;-2.60;99.90;;;;;;4996530;28;20073;-87
2022/12/10 05:14:11;;;;;;;102.88;32.85;;;-2.80;99.90;;;;;;4976782;28;20126;-86
2022/12/10 05:16:37;;;;;;;115.13;36.88;;;-2.70;99.90;;;;;;4978130;28;20088;-86
2022/12/10 05:19:03;;;;;;;117.72;34.70;;;-2.70;99.90;;;;;;4976851;28;20133;-87
2022/12/10 05:24:18;;;;;;;115.93;34.20;;;-2.70;99.90;;;;;;4976733;28;20054;-87
2022/12/10 05:26:50;;;;;;;120.70;35.70;;;-2.70;99.90;;;;;;4980412;28;20042;-87
2022/12/10 05:29:16;;;;;;;105.30;34.20;;;-2.70;99.90;;;;;;4959690;28;20449;-87
2022/12/10 05:31:42;;;;;;;109.70;34.92;;;-2.70;99.90;;;;;;4975260;28;20032;-86
2022/12/10 05:34:13;;;;;;;112.63;34.30;;;-2.70;99.90;;;;;;4995965;28;20053;-87
2022/12/10 05:36:40;;;;;;;118.05;35.90;;;-2.70;99.90;;;;;;4977228;28;20209;-87
2022/12/10 05:39:06;;;;;;;106.57;33.78;;;-2.70;99.90;;;;;;4960136;28;20042;-86
2022/12/10 05:41:35;;;;;;;105.60;34.70;;;-2.70;99.90;;;;;;4977808;28;20045;-86
2022/12/10 05:44:04;;;;;;;107.70;36.17;;;-2.70;99.90;;;;;;4974086;28;20423;-86
2022/12/10 05:46:32;;;;;;;106.38;33.80;;;-2.60;99.90;;;;;;4974136;28;20287;-86
2022/12/10 05:49:00;;;;;;;104.90;32.75;;;-2.60;99.90;;;;;;4976933;28;20046;-86
2022/12/10 05:51:28;;;;;;;108.75;35.05;;;-2.60;99.90;;;;;;4974804;28;20050;-86
2022/12/10 05:53:54;;;;;;;111.30;34.33;;;-2.50;99.90;;;;;;4990222;28;20556;-87
2022/12/10 05:56:24;;;;;;;99.65;33.15;;;-2.50;99.90;;;;;;4975711;28;20481;-87
2022/12/10 05:58:52;;;;;;;108.05;35.85;;;-2.60;99.90;;;;;;4971537;28;20501;-87
2022/12/10 06:01:21;;;;;;;108.40;34.45;;;-2.50;99.90;;;;;;4976829;28;20062;-87
2022/12/10 06:03:52;;;;;;;102.57;33.35;;;-2.40;99.90;;;;;;4972621;28;20045;-85
2022/12/10 06:06:26;;;;;;;113.05;35.30;;;-2.40;99.90;;;;;;4979419;28;20045;-87
2022/12/10 06:08:52;;;;;;;114.53;36.35;;;-2.30;99.90;;;;;;4959136;28;20447;-87
2022/12/10 06:11:19;;;;;;;126.97;36.03;;;-2.10;99.90;;;;;;4962373;28;20045;-86
2022/12/10 06:13:45;;;;;;;121.13;37.53;;;-2.10;99.90;;;;;;4960394;28;20303;-87
2022/12/10 06:16:12;;;;;;;114.88;35.42;;;-2.10;99.90;;;;;;4981192;28;20038;-86
2022/12/10 06:18:41;;;;;;;124.75;36.83;;;-2.00;99.90;;;;;;4999336;28;20526;-87
2022/12/10 06:21:09;;;;;;;144.50;38.08;;;-1.90;99.90;;;;;;4963206;28;20108;-87
2022/12/10 06:23:36;;;;;;;117.97;35.58;;;-1.90;99.90;;;;;;4961000;28;20367;-87
2022/12/10 06:26:10;;;;;;;141.65;38.03;;;-1.90;99.90;;;;;;4980128;28;20492;-87
2022/12/10 06:28:44;;;;;;;151.20;38.42;;;-1.80;99.90;;;;;;4994165;28;20042;-86
2022/12/10 06:31:10;;;;;;;133.40;37.83;;;-1.80;99.90;;;;;;4977718;28;20033;-87
2022/12/10 06:33:36;;;;;;;147.45;38.90;;;-1.90;99.90;;;;;;4983767;28;20501;-87
2022/12/10 06:36:07;;;;;;;140.45;37.30;;;-1.80;99.90;;;;;;4977199;28;20077;-87
2022/12/10 06:38:33;;;;;;;137.93;38.95;;;-1.80;99.90;;;;;;4979593;28;20038;-87
2022/12/10 06:40:59;;;;;;;145.48;38.70;;;-1.80;99.90;;;;;;4977765;28;20100;-85
2022/12/10 06:43:28;;;;;;;134.43;35.83;;;-1.80;99.90;;;;;;4964260;28;20112;-87
2022/12/10 06:45:54;;;;;;;146.65;38.70;;;-1.70;99.90;;;;;;4963256;28;20225;-87
2022/12/10 06:48:19;;;;;;;149.88;37.13;;;-1.80;99.90;;;;;;4978605;28;20093;-87
2022/12/10 06:50:45;;;;;;;130.75;36.72;;;-1.80;99.90;;;;;;4975857;28;21017;-87
2022/12/10 06:53:11;;;;;;;151.13;38.83;;;-1.70;99.90;;;;;;4978214;28;20443;-87
2022/12/10 06:55:40;;;;;;;135.30;37.80;;;-1.80;99.90;;;;;;4962552;28;20084;-87
2022/12/10 06:58:06;;;;;;;139.13;37.83;;;-1.80;99.90;;;;;;4976135;28;20641;-86
2022/12/10 07:00:32;;;;;;;139.98;37.58;;;-1.80;99.90;;;;;;4979589;28;20758;-87
2022/12/10 07:02:58;;;;;;;193.23;37.70;;;-1.70;99.90;;;;;;4963781;28;20045;-87
2022/12/10 07:05:27;;;;;;;142.10;37.45;;;-1.70;99.90;;;;;;4976682;28;20057;-87
2022/12/10 07:07:53;;;;;;;136.05;37.03;;;-1.70;99.90;;;;;;4994005;28;20049;-87
2022/12/10 07:10:19;;;;;;;151.00;35.38;;;-1.70;99.90;;;;;;4963943;28;20041;-86
2022/12/10 07:12:44;;;;;;;151.43;36.22;;;-1.70;99.90;;;;;;4960211;28;20038;-85
2022/12/10 07:15:10;;;;;;;147.68;36.92;;;-1.70;99.90;;;;;;4978604;28;20421;-87
2022/12/10 07:17:36;;;;;;;162.38;38.35;;;-1.70;99.90;;;;;;4961965;28;20477;-87
2022/12/10 07:20:02;;;;;;;151.43;36.53;;;-1.70;99.90;;;;;;4997475;28;20038;-86
2022/12/10 07:22:30;;;;;;;146.23;38.20;;;-1.60;99.90;;;;;;4992175;28;20046;-86
2022/12/10 07:24:56;;;;;;;153.95;37.20;;;-1.70;99.90;;;;;;4977433;28;20046;-87
2022/12/10 07:27:22;;;;;;;165.48;35.85;;;-1.70;99.90;;;;;;4976891;28;20038;-87
2022/12/10 07:29:48;;;;;;;155.13;36.67;;;-1.70;99.90;;;;;;4977814;28;20049;-86
2022/12/10 07:32:13;;;;;;;157.45;36.05;;;-1.70;99.90;;;;;;4978630;28;20133;-86
2022/12/10 07:34:39;;;;;;;157.27;36.38;;;-1.70;99.90;;;;;;4977368;28;20088;-87
2022/12/10 07:37:11;;;;;;;162.98;37.95;;;-1.60;99.90;;;;;;4978229;28;20111;-86
2022/12/10 07:39:37;;;;;;;154.30;34.42;;;-1.70;99.90;;;;;;4981423;28;20046;-87
2022/12/10 07:42:03;;;;;;;134.90;32.85;;;-1.60;99.90;;;;;;4979564;28;20052;-87
2022/12/10 07:44:29;;;;;;;132.20;34.15;;;-1.60;99.90;;;;;;4974926;28;20050;-86
2022/12/10 07:46:55;;;;;;;141.77;36.17;;;-1.50;99.90;;;;;;4978743;28;20153;-86
2022/12/10 07:49:21;;;;;;;148.55;36.60;;;-1.50;99.90;;;;;;4978971;28;20043;-87
2022/12/10 07:51:49;;;;;;;182.88;36.90;;;-1.60;99.90;;;;;;4979163;28;20044;-86
2022/12/10 07:54:15;;;;;;;164.52;35.75;;;-1.50;99.90;;;;;;4981722;28;20415;-86
2022/12/10 07:56:41;;;;;;;144.32;35.95;;;-1.50;99.90;;;;;;4976044;28;20489;-86
2022/12/10 07:59:07;;;;;;;162.85;37.17;;;-1.60;99.90;;;;;;4975638;28;20053;-85
2022/12/10 08:01:33;;;;;;;152.48;37.72;;;-1.50;99.90;;;;;;4996782;28;20444;-86
2022/12/10 08:03:58;;;;;;;147.38;35.85;;;-1.60;99.90;;;;;;4975555;28;20049;-86
2022/12/10 08:06:26;;;;;;;160.13;35.47;;;-1.50;99.90;;;;;;4959616;28;20127;-87
2022/12/10 08:08:55;;;;;;;142.02;35.92;;;-1.50;99.90;;;;;;4991106;28;20133;-86
2022/12/10 08:11:22;;;;;;;155.20;37.53;;;-1.50;99.90;;;;;;4981242;28;20038;-87
2022/12/10 08:13:48;;;;;;;180.32;36.20;;;-1.40;99.90;;;;;;4981036;28;20050;-87
2022/12/10 08:16:22;;;;;;;169.05;37.13;;;-1.50;99.90;;;;;;4990536;28;20071;-87
2022/12/10 08:18:48;;;;;;;187.13;38.63;;;-1.60;99.90;;;;;;4966951;28;20072;-87
2022/12/10 08:21:17;;;;;;;152.60;35.83;;;-1.50;99.90;;;;;;4986229;28;20092;-85
2022/12/10 08:23:44;;;;;;;142.20;35.00;;;-1.50;99.90;;;;;;4992033;28;20704;-87
2022/12/10 08:26:16;;;;;;;143.73;36.97;;;-1.50;99.90;;;;;;4967271;28;20143;-86
2022/12/10 08:28:42;;;;;;;143.35;35.10;;;-1.50;99.90;;;;;;4988381;28;20475;-86
2022/12/10 08:31:11;;;;;;;129.90;36.80;;;-1.40;99.90;;;;;;4977526;28;20135;-86
2022/12/10 08:33:37;;;;;;;138.23;36.40;;;-1.40;99.90;;;;;;4977793;28;20058;-86
2022/12/10 08:36:05;;;;;;;136.82;37.15;;;-1.40;99.90;;;;;;4960959;28;20049;-87
2022/12/10 08:38:31;;;;;;;134.75;37.28;;;-1.40;99.90;;;;;;4974348;28;20553;-87
2022/12/10 08:40:57;;;;;;;141.20;37.60;;;-1.40;99.90;;;;;;4977288;28;20137;-86
2022/12/10 08:43:24;;;;;;;129.90;36.47;;;-1.30;99.90;;;;;;4975437;28;20054;-87
2022/12/10 08:45:49;;;;;;;156.18;38.78;;;-1.30;99.90;;;;;;4997760;28;20050;-87
2022/12/10 08:48:15;;;;;;;157.70;38.55;;;-1.30;99.90;;;;;;4978475;28;20498;-87
2022/12/10 08:50:44;;;;;;;131.75;37.58;;;-1.30;99.90;;;;;;4960313;28;20053;-86
2022/12/10 08:53:10;;;;;;;132.65;36.95;;;-1.30;99.90;;;;;;4975377;28;20034;-87
2022/12/10 08:55:39;;;;;;;144.00;38.10;;;-1.30;99.90;;;;;;4957073;28;20057;-86
2022/12/10 08:58:05;;;;;;;145.98;39.78;;;-1.30;99.90;;;;;;4988913;28;20101;-87
2022/12/10 09:00:31;;;;;;;146.43;39.97;;;-1.20;99.90;;;;;;4958884;28;20149;-86
2022/12/10 09:02:56;;;;;;;140.90;36.67;;;-1.20;99.90;;;;;;4975535;28;20092;-86
2022/12/10 09:05:22;;;;;;;145.63;39.50;;;-1.20;99.90;;;;;;4979096;28;20118;-86
2022/12/10 09:07:49;;;;;;;155.82;40.83;;;-1.10;99.90;;;;;;4972123;28;20673;-86
2022/12/10 09:10:16;;;;;;;126.28;37.45;;;-1.00;99.90;;;;;;4992223;28;20508;-87
2022/12/10 09:12:50;;;;;;;130.88;34.22;;;-0.90;99.90;;;;;;4976448;28;20302;-85
2022/12/10 09:15:19;;;;;;;140.02;35.30;;;-0.90;99.90;;;;;;4975112;28;20464;-86
2022/12/10 09:17:48;;;;;;;106.40;32.70;;;-0.90;99.90;;;;;;4976089;28;20572;-85
2022/12/10 09:20:14;;;;;;;119.07;32.42;;;-0.90;99.90;;;;;;4960331;28;20052;-85
2022/12/10 09:22:40;;;;;;;111.90;34.35;;;-1.00;99.90;;;;;;4970948;28;20053;-86
2022/12/10 09:25:10;;;;;;;126.97;33.63;;;-0.90;99.90;;;;;;4976863;28;20413;-85
2022/12/10 09:27:37;;;;;;;148.68;34.55;;;-0.90;99.90;;;;;;4972768;28;20050;-86
2022/12/10 09:30:05;;;;;;;156.25;35.05;;;-1.00;99.90;;;;;;4956010;28;20069;-86
2022/12/10 09:32:30;;;;;;;132.75;33.28;;;-1.10;99.90;;;;;;4957168;28;20048;-86
2022/12/10 09:34:56;;;;;;;138.30;34.65;;;-1.10;99.90;;;;;;4973913;28;20061;-87
2022/12/10 09:37:22;;;;;;;133.43;34.08;;;-1.00;99.90;;;;;;4976466;28;20077;-85
2022/12/10 09:39:51;;;;;;;139.55;34.85;;;-1.00;99.90;;;;;;4974552;28;20508;-86
2022/12/10 09:42:34;;;;;;;142.75;34.95;;;-1.00;99.90;;;;;;4975422;28;20050;-86
2022/12/10 09:45:17;;;;;;;141.02;36.00;;;-1.10;99.90;;;;;;4973906;28;20405;-86
2022/12/10 09:48:13;;;;;;;131.07;35.78;;;-1.00;99.90;;;;;;4977401;28;20712;-86
2022/12/10 09:50:48;;;;;;;170.45;37.28;;;-0.90;99.90;;;;;;4975958;28;20045;-86
2022/12/10 09:53:17;;;;;;;151.60;36.67;;;-1.00;99.90;;;;;;4976474;28;20109;-86
2022/12/10 09:55:48;;;;;;;139.18;36.42;;;-0.90;99.90;;;;;;4975861;28;20717;-84
2022/12/10 09:58:23;;;;;;;131.75;36.65;;;-0.90;99.90;;;;;;4978428;28;20045;-87
2022/12/10 10:01:02;;;;;;;156.27;38.40;;;-0.80;99.90;;;;;;4992226;28;20536;-87
2022/12/10 10:03:34;;;;;;;150.23;37.53;;;-0.80;99.90;;;;;;4956820;28;20084;-86
2022/12/10 10:06:03;;;;;;;143.30;36.72;;;-0.70;99.90;;;;;;4971316;28;20306;-86
2022/12/10 10:08:33;;;;;;;134.50;35.92;;;-0.80;99.90;;;;;;4974285;28;20061;-86
2022/12/10 10:11:03;;;;;;;133.68;37.10;;;-0.70;99.90;;;;;;4972071;28;20046;-86
2022/12/10 10:13:54;;;;;;;141.70;36.97;;;-0.70;99.90;;;;;;4959939;28;20540;-85
2022/12/10 10:16:22;;;;;;;135.95;35.92;;;-0.70;99.90;;;;;;4992515;28;20396;-87
2022/12/10 10:19:14;;;;;;;144.02;35.83;;;-0.60;99.90;;;;;;4991856;28;20128;-86
2022/12/10 10:21:50;;;;;;;139.50;36.78;;;-0.60;99.90;;;;;;4991084;28;20046;-86
2022/12/10 10:24:46;;;;;;;149.88;37.33;;;-0.50;99.90;;;;;;4971947;28;20505;-85
2022/12/10 10:27:22;;;;;;;140.95;36.92;;;-0.50;99.90;;;;;;4962468;28;20050;-86
2022/12/10 10:29:51;;;;;;;126.13;37.80;;;-0.50;99.90;;;;;;4988452;28;20061;-86
2022/12/10 10:32:23;;;;;;;134.30;36.28;;;-0.40;99.90;;;;;;4974264;28;20049;-86
2022/12/10 10:34:55;;;;;;;130.68;34.58;;;-0.40;99.90;;;;;;4987443;28;20497;-85
2022/12/10 10:37:31;;;;;;;123.03;34.63;;;-0.40;99.90;;;;;;4993973;28;20120;-86
2022/12/10 10:39:58;;;;;;;125.63;34.88;;;-0.40;99.90;;;;;;4972006;28;20045;-86
2022/12/10 10:42:43;;;;;;;144.65;37.13;;;-0.30;99.90;;;;;;4993075;28;20052;-86
2022/12/10 10:45:30;;;;;;;157.13;36.75;;;-0.20;99.90;;;;;;4969654;28;20136;-86
2022/12/10 10:48:07;;;;;;;113.03;34.33;;;-0.10;99.90;;;;;;4970355;28;20452;-86
2022/12/10 10:50:38;;;;;;;131.77;36.72;;;-0.20;99.90;;;;;;4973007;28;20652;-85
2022/12/10 10:53:31;;;;;;;148.43;36.67;;;-0.20;99.90;;;;;;4970892;28;20042;-86
2022/12/10 10:56:06;;;;;;;117.63;35.38;;;-0.20;99.90;;;;;;4959205;28;20121;-86
2022/12/10 10:58:33;;;;;;;139.48;37.53;;;-0.20;99.90;;;;;;4975689;28;20084;-86
2022/12/10 11:01:05;;;;;;;129.07;37.00;;;-0.10;99.90;;;;;;4962291;28;20054;-86
2022/12/10 11:03:34;;;;;;;139.20;37.05;;;-0.20;99.90;;;;;;4975664;28;20042;-86
2022/12/10 11:06:01;;;;;;;138.65;36.10;;;-0.10;99.90;;;;;;4976926;28;20049;-86
2022/12/10 11:08:30;;;;;;;136.80;36.25;;;-0.10;99.90;;;;;;4990620;28;20540;-85
2022/12/10 11:11:04;;;;;;;135.55;36.10;;;0.00;99.90;;;;;;4976022;28;20172;-86
2022/12/10 11:13:35;;;;;;;173.20;39.40;;;0.00;99.90;;;;;;4958675;28;20037;-84
2022/12/10 11:16:14;;;;;;;100.60;33.83;;;0.00;99.90;;;;;;4972895;28;20047;-85
2022/12/10 11:18:43;;;;;;;100.68;31.42;;;0.00;99.90;;;;;;4992016;28;20049;-85
2022/12/10 11:21:11;;;;;;;91.93;31.75;;;-0.10;99.90;;;;;;4973884;28;20356;-84
2022/12/10 11:23:49;;;;;;;110.65;33.20;;;-0.20;99.90;;;;;;4960742;28;20468;-85
2022/12/10 11:26:33;;;;;;;98.10;31.08;;;-0.20;99.90;;;;;;4976728;28;20100;-85
2022/12/10 11:29:24;;;;;;;113.05;35.08;;;-0.20;99.90;;;;;;4971213;28;20107;-85
2022/12/10 11:32:28;;;;;;;125.72;35.05;;;-0.30;99.90;;;;;;4992819;28;20390;-85
2022/12/10 11:35:01;;;;;;;127.13;36.38;;;-0.30;99.90;;;;;;4980461;28;20056;-85
2022/12/10 11:37:51;;;;;;;118.32;34.75;;;-0.10;99.90;;;;;;4997244;28;20394;-85
2022/12/10 11:40:23;;;;;;;105.18;34.92;;;-0.10;99.90;;;;;;4974804;28;20375;-85
2022/12/10 11:42:54;;;;;;;102.13;33.05;;;-0.10;99.90;;;;;;4997096;28;20054;-85
2022/12/10 11:45:45;;;;;;;118.90;34.10;;;-0.10;99.90;;;;;;4978927;28;20123;-86
2022/12/10 11:48:56;;;;;;;112.28;32.40;;;0.00;99.90;;;;;;4992799;28;20308;-85
2022/12/10 11:51:38;;;;;;;99.68;30.27;;;0.00;99.90;;;;;;4971217;28;20770;-86
2022/12/10 11:54:26;;;;;;;106.00;30.27;;;0.10;99.90;;;;;;4977296;28;20041;-86
2022/12/10 11:57:14;;;;;;;91.13;27.67;;;0.30;99.90;;;;;;4977462;28;20096;-86
2022/12/10 12:00:04;;;;;;;58.15;23.35;;;0.10;99.90;;;;;;4993080;28;20076;-85
2022/12/10 12:02:36;;;;;;;70.55;25.35;;;-0.10;99.90;;;;;;4973289;28;20464;-86
2022/12/10 12:05:24;;;;;;;66.72;25.60;;;0.00;99.90;;;;;;4994040;28;20052;-85
2022/12/10 12:08:14;;;;;;;75.18;25.73;;;-0.10;99.90;;;;;;4975386;28;20400;-85
2022/12/10 12:10:46;;;;;;;71.07;25.77;;;-0.10;99.90;;;;;;4994721;28;20046;-86
2022/12/10 12:13:38;;;;;;;76.75;26.30;;;-0.20;99.90;;;;;;4975613;28;20052;-86
2022/12/10 12:16:18;;;;;;;70.90;25.15;;;-0.10;99.90;;;;;;4974059;28;20450;-85
2022/12/10 12:19:04;;;;;;;67.65;25.80;;;-0.10;99.90;;;;;;4960449;28;20050;-85
2022/12/10 12:21:30;;;;;;;79.03;26.88;;;0.00;99.90;;;;;;4975144;28;20052;-85
2022/12/10 12:24:28;;;;;;;89.30;28.52;;;0.10;99.90;;;;;;4978653;28;20041;-85
2022/12/10 12:27:00;;;;;;;93.93;28.30;;;0.10;99.90;;;;;;4977397;28;20133;-86
2022/12/10 12:29:50;;;;;;;107.68;29.90;;;0.10;99.90;;;;;;4957735;28;20104;-83
2022/12/10 12:32:29;;;;;;;115.90;31.60;;;0.00;99.90;;;;;;4978210;28;20073;-83
2022/12/10 12:34:58;;;;;;;89.60;28.08;;;0.10;99.90;;;;;;4975754;28;20049;-83
2022/12/10 12:37:37;;;;;;;77.82;26.90;;;-0.10;99.90;;;;;;4974399;28;20112;-83
2022/12/10 12:40:31;;;;;;;84.82;27.15;;;0.00;99.90;;;;;;4991710;28;20050;-83
2022/12/10 12:43:07;;;;;;;106.25;29.52;;;0.00;99.90;;;;;;4968752;28;20394;-82
2022/12/10 12:45:36;;;;;;;93.93;28.98;;;0.00;99.90;;;;;;4992861;28;20497;-82
2022/12/10 12:48:18;;;;;;;97.00;29.65;;;0.00;99.90;;;;;;4975183;28;20077;-82
2022/12/10 12:51:02;;;;;;;89.60;28.35;;;0.20;99.90;;;;;;4974521;28;20145;-82